sensor_id;sensor_type;location;lat;lon;timestamp;temperature;humidity
2042;DHT22;1026;51.460;7.252;2023-03-29T00:01:51;7.20;92.70
2042;DHT22;1026;51.460;7.252;2023-03-29T00:04:17;7.20;92.30
2042;DHT22;1026;51.460;7.252;2023-03-29T00:06:45;7.20;92.40
2042;DHT22;1026;51.460;7.252;2023-03-29T00:09:13;7.20;92.40
2042;DHT22;1026;51.460;7.252;2023-03-29T00:11:39;7.10;92.30
2042;DHT22;1026;51.460;7.252;2023-03-29T00:14:05;7.10;92.30
2042;DHT22;1026;51.460;7.252;2023-03-29T00:16:30;7.20;92.40
2042;DHT22;1026;51.460;7.252;2023-03-29T00:18:56;7.20;92.40
2042;DHT22;1026;51.460;7.252;2023-03-29T00:21:22;7.10;92.30
2042;DHT22;1026;51.460;7.252;2023-03-29T00:23:48;7.10;92.40
2042;DHT22;1026;51.460;7.252;2023-03-29T00:26:14;7.10;92.40
2042;DHT22;1026;51.460;7.252;2023-03-29T00:28:40;7.10;92.40
2042;DHT22;1026;51.460;7.252;2023-03-29T00:31:09;7.10;92.40
2042;DHT22;1026;51.460;7.252;2023-03-29T00:33:35;7.10;92.40
2042;DHT22;1026;51.460;7.252;2023-03-29T00:36:02;7.10;92.40
2042;DHT22;1026;51.460;7.252;2023-03-29T00:38:29;7.00;92.40
2042;DHT22;1026;51.460;7.252;2023-03-29T00:40:55;7.10;92.40
2042;DHT22;1026;51.460;7.252;2023-03-29T00:43:21;7.10;92.40
2042;DHT22;1026;51.460;7.252;2023-03-29T00:45:47;7.10;92.50
2042;DHT22;1026;51.460;7.252;2023-03-29T00:48:22;7.10;92.40
2042;DHT22;1026;51.460;7.252;2023-03-29T00:50:59;7.10;92.40
2042;DHT22;1026;51.460;7.252;2023-03-29T00:53:33;7.00;92.40
2042;DHT22;1026;51.460;7.252;2023-03-29T00:56:05;7.10;92.50
2042;DHT22;1026;51.460;7.252;2023-03-29T00:58:37;7.00;92.40
2042;DHT22;1026;51.460;7.252;2023-03-29T01:01:06;7.00;92.40
2042;DHT22;1026;51.460;7.252;2023-03-29T01:03:40;7.00;92.50
2042;DHT22;1026;51.460;7.252;2023-03-29T01:09:23;7.00;92.50
2042;DHT22;1026;51.460;7.252;2023-03-29T01:11:54;7.00;92.50
2042;DHT22;1026;51.460;7.252;2023-03-29T01:14:28;7.00;92.50
2042;DHT22;1026;51.460;7.252;2023-03-29T01:16:55;7.00;92.50
2042;DHT22;1026;51.460;7.252;2023-03-29T01:19:24;7.00;92.50
2042;DHT22;1026;51.460;7.252;2023-03-29T01:22:02;7.00;92.50
2042;DHT22;1026;51.460;7.252;2023-03-29T01:30:06;7.00;92.60
2042;DHT22;1026;51.460;7.252;2023-03-29T01:32:39;6.90;92.50
2042;DHT22;1026;51.460;7.252;2023-03-29T01:35:14;7.00;92.60
2042;DHT22;1026;51.460;7.252;2023-03-29T01:37:54;6.90;92.50
2042;DHT22;1026;51.460;7.252;2023-03-29T01:40:22;6.90;92.60
2042;DHT22;1026;51.460;7.252;2023-03-29T01:42:51;6.90;92.50
2042;DHT22;1026;51.460;7.252;2023-03-29T01:45:25;6.90;92.50
2042;DHT22;1026;51.460;7.252;2023-03-29T01:50:42;6.90;92.50
2042;DHT22;1026;51.460;7.252;2023-03-29T01:53:14;6.90;92.60
2042;DHT22;1026;51.460;7.252;2023-03-29T01:55:48;6.90;92.50
2042;DHT22;1026;51.460;7.252;2023-03-29T01:58:17;6.90;92.50
2042;DHT22;1026;51.460;7.252;2023-03-29T02:00:44;6.90;92.60
2042;DHT22;1026;51.460;7.252;2023-03-29T02:03:11;6.90;92.60
2042;DHT22;1026;51.460;7.252;2023-03-29T02:05:39;6.90;92.60
2042;DHT22;1026;51.460;7.252;2023-03-29T02:08:08;6.90;92.60
2042;DHT22;1026;51.460;7.252;2023-03-29T02:10:35;6.90;92.60
2042;DHT22;1026;51.460;7.252;2023-03-29T02:13:02;6.90;92.60
2042;DHT22;1026;51.460;7.252;2023-03-29T02:15:28;6.90;92.60
2042;DHT22;1026;51.460;7.252;2023-03-29T02:17:53;6.90;92.60
2042;DHT22;1026;51.460;7.252;2023-03-29T02:20:32;6.90;92.60
2042;DHT22;1026;51.460;7.252;2023-03-29T02:23:11;6.90;92.60
2042;DHT22;1026;51.460;7.252;2023-03-29T02:25:39;6.90;92.60
2042;DHT22;1026;51.460;7.252;2023-03-29T02:28:06;6.90;92.70
2042;DHT22;1026;51.460;7.252;2023-03-29T02:30:52;6.90;92.60
2042;DHT22;1026;51.460;7.252;2023-03-29T02:33:25;6.80;92.60
2042;DHT22;1026;51.460;7.252;2023-03-29T02:36:00;6.80;92.60
2042;DHT22;1026;51.460;7.252;2023-03-29T02:38:27;6.90;92.70
2042;DHT22;1026;51.460;7.252;2023-03-29T02:40:57;6.80;92.60
2042;DHT22;1026;51.460;7.252;2023-03-29T02:43:24;6.90;92.70
2042;DHT22;1026;51.460;7.252;2023-03-29T02:45:51;6.80;92.60
2042;DHT22;1026;51.460;7.252;2023-03-29T02:48:19;6.80;92.60
2042;DHT22;1026;51.460;7.252;2023-03-29T02:50:48;6.80;92.60
2042;DHT22;1026;51.460;7.252;2023-03-29T02:53:18;6.80;92.70
2042;DHT22;1026;51.460;7.252;2023-03-29T02:55:45;6.80;92.70
2042;DHT22;1026;51.460;7.252;2023-03-29T02:58:12;6.80;92.70
2042;DHT22;1026;51.460;7.252;2023-03-29T03:00:42;6.80;92.70
2042;DHT22;1026;51.460;7.252;2023-03-29T03:03:09;6.80;92.70
2042;DHT22;1026;51.460;7.252;2023-03-29T03:05:37;6.80;92.70
2042;DHT22;1026;51.460;7.252;2023-03-29T03:08:04;6.80;92.70
2042;DHT22;1026;51.460;7.252;2023-03-29T03:10:32;6.80;92.70
2042;DHT22;1026;51.460;7.252;2023-03-29T03:12:58;6.80;92.70
2042;DHT22;1026;51.460;7.252;2023-03-29T03:15:23;6.80;92.70
2042;DHT22;1026;51.460;7.252;2023-03-29T03:17:51;6.80;92.70
2042;DHT22;1026;51.460;7.252;2023-03-29T03:20:17;6.80;92.70
2042;DHT22;1026;51.460;7.252;2023-03-29T03:22:44;6.80;92.70
2042;DHT22;1026;51.460;7.252;2023-03-29T03:25:14;6.80;92.70
2042;DHT22;1026;51.460;7.252;2023-03-29T03:27:42;6.80;92.70
2042;DHT22;1026;51.460;7.252;2023-03-29T03:30:08;6.80;92.70
2042;DHT22;1026;51.460;7.252;2023-03-29T03:35:04;6.80;92.80
2042;DHT22;1026;51.460;7.252;2023-03-29T03:37:32;6.80;92.70
2042;DHT22;1026;51.460;7.252;2023-03-29T03:39:58;6.70;92.70
2042;DHT22;1026;51.460;7.252;2023-03-29T03:42:26;6.80;92.80
2042;DHT22;1026;51.460;7.252;2023-03-29T03:44:53;6.80;92.80
2042;DHT22;1026;51.460;7.252;2023-03-29T03:47:18;6.80;92.80
2042;DHT22;1026;51.460;7.252;2023-03-29T03:49:44;6.80;92.80
2042;DHT22;1026;51.460;7.252;2023-03-29T03:52:18;6.80;92.80
2042;DHT22;1026;51.460;7.252;2023-03-29T03:54:43;6.80;92.80
2042;DHT22;1026;51.460;7.252;2023-03-29T03:57:11;6.80;92.80
2042;DHT22;1026;51.460;7.252;2023-03-29T03:59:46;6.70;92.70
2042;DHT22;1026;51.460;7.252;2023-03-29T04:02:11;6.70;92.70
2042;DHT22;1026;51.460;7.252;2023-03-29T04:04:37;6.80;92.80
2042;DHT22;1026;51.460;7.252;2023-03-29T04:07:07;6.80;92.80
2042;DHT22;1026;51.460;7.252;2023-03-29T04:09:34;6.80;92.80
2042;DHT22;1026;51.460;7.252;2023-03-29T04:12:00;6.80;92.80
2042;DHT22;1026;51.460;7.252;2023-03-29T04:14:26;6.80;92.80
2042;DHT22;1026;51.460;7.252;2023-03-29T04:16:53;6.80;92.80
2042;DHT22;1026;51.460;7.252;2023-03-29T04:19:18;6.80;92.90
2042;DHT22;1026;51.460;7.252;2023-03-29T04:21:44;6.80;92.90
2042;DHT22;1026;51.460;7.252;2023-03-29T04:24:12;6.80;92.90
2042;DHT22;1026;51.460;7.252;2023-03-29T04:26:38;6.80;92.90
2042;DHT22;1026;51.460;7.252;2023-03-29T04:29:03;6.70;92.80
2042;DHT22;1026;51.460;7.252;2023-03-29T04:31:30;6.80;92.90
2042;DHT22;1026;51.460;7.252;2023-03-29T04:33:57;6.80;92.90
2042;DHT22;1026;51.460;7.252;2023-03-29T04:36:23;6.80;92.90
2042;DHT22;1026;51.460;7.252;2023-03-29T04:38:51;6.70;92.90
2042;DHT22;1026;51.460;7.252;2023-03-29T04:41:18;6.80;92.90
2042;DHT22;1026;51.460;7.252;2023-03-29T04:43:44;6.80;93.00
2042;DHT22;1026;51.460;7.252;2023-03-29T04:46:13;6.80;92.90
2042;DHT22;1026;51.460;7.252;2023-03-29T04:48:39;6.80;93.00
2042;DHT22;1026;51.460;7.252;2023-03-29T04:51:05;6.80;92.90
2042;DHT22;1026;51.460;7.252;2023-03-29T04:53:30;6.80;93.00
2042;DHT22;1026;51.460;7.252;2023-03-29T04:55:56;6.80;93.00
2042;DHT22;1026;51.460;7.252;2023-03-29T04:58:24;6.80;93.00
2042;DHT22;1026;51.460;7.252;2023-03-29T05:00:50;6.80;93.00
2042;DHT22;1026;51.460;7.252;2023-03-29T05:03:16;6.80;93.00
2042;DHT22;1026;51.460;7.252;2023-03-29T05:05:42;6.70;92.90
2042;DHT22;1026;51.460;7.252;2023-03-29T05:08:10;6.80;92.90
2042;DHT22;1026;51.460;7.252;2023-03-29T05:10:41;6.80;93.00
2042;DHT22;1026;51.460;7.252;2023-03-29T05:13:08;6.80;93.00
2042;DHT22;1026;51.460;7.252;2023-03-29T05:15:34;6.60;92.90
2042;DHT22;1026;51.460;7.252;2023-03-29T05:18:00;6.80;93.00
2042;DHT22;1026;51.460;7.252;2023-03-29T05:20:26;6.80;93.00
2042;DHT22;1026;51.460;7.252;2023-03-29T05:22:53;6.70;93.00
2042;DHT22;1026;51.460;7.252;2023-03-29T05:25:19;6.70;93.00
2042;DHT22;1026;51.460;7.252;2023-03-29T05:27:45;6.70;93.00
2042;DHT22;1026;51.460;7.252;2023-03-29T05:30:12;6.80;93.10
2042;DHT22;1026;51.460;7.252;2023-03-29T05:32:40;6.80;93.10
2042;DHT22;1026;51.460;7.252;2023-03-29T05:35:06;6.70;93.00
2042;DHT22;1026;51.460;7.252;2023-03-29T05:37:32;6.80;93.20
2042;DHT22;1026;51.460;7.252;2023-03-29T05:39:58;6.80;93.10
2042;DHT22;1026;51.460;7.252;2023-03-29T05:42:25;6.80;93.10
2042;DHT22;1026;51.460;7.252;2023-03-29T05:44:52;6.70;93.10
2042;DHT22;1026;51.460;7.252;2023-03-29T05:47:17;6.80;93.20
2042;DHT22;1026;51.460;7.252;2023-03-29T05:49:43;6.80;93.30
2042;DHT22;1026;51.460;7.252;2023-03-29T05:52:12;6.80;93.20
2042;DHT22;1026;51.460;7.252;2023-03-29T05:54:41;6.90;93.20
2042;DHT22;1026;51.460;7.252;2023-03-29T05:57:07;6.80;93.20
2042;DHT22;1026;51.460;7.252;2023-03-29T05:59:32;6.70;93.10
2042;DHT22;1026;51.460;7.252;2023-03-29T06:01:58;6.80;93.20
2042;DHT22;1026;51.460;7.252;2023-03-29T06:04:25;6.80;93.20
2042;DHT22;1026;51.460;7.252;2023-03-29T06:06:50;6.70;93.10
2042;DHT22;1026;51.460;7.252;2023-03-29T06:09:17;6.80;93.20
2042;DHT22;1026;51.460;7.252;2023-03-29T06:11:44;6.70;93.20
2042;DHT22;1026;51.460;7.252;2023-03-29T06:14:11;6.80;93.20
2042;DHT22;1026;51.460;7.252;2023-03-29T06:16:38;6.80;93.20
2042;DHT22;1026;51.460;7.252;2023-03-29T06:19:05;6.80;93.20
2042;DHT22;1026;51.460;7.252;2023-03-29T06:21:31;6.70;93.20
2042;DHT22;1026;51.460;7.252;2023-03-29T06:23:58;6.80;93.20
2042;DHT22;1026;51.460;7.252;2023-03-29T06:26:24;6.80;93.20
2042;DHT22;1026;51.460;7.252;2023-03-29T06:28:52;6.70;93.20
2042;DHT22;1026;51.460;7.252;2023-03-29T06:31:18;6.80;93.20
2042;DHT22;1026;51.460;7.252;2023-03-29T06:33:44;6.80;93.20
2042;DHT22;1026;51.460;7.252;2023-03-29T06:36:11;6.80;93.20
2042;DHT22;1026;51.460;7.252;2023-03-29T06:38:42;6.70;93.20
2042;DHT22;1026;51.460;7.252;2023-03-29T06:41:10;6.80;93.20
2042;DHT22;1026;51.460;7.252;2023-03-29T06:43:36;6.90;93.20
2042;DHT22;1026;51.460;7.252;2023-03-29T06:46:02;6.90;93.30
2042;DHT22;1026;51.460;7.252;2023-03-29T06:48:28;6.90;93.20
2042;DHT22;1026;51.460;7.252;2023-03-29T06:50:54;6.90;93.20
2042;DHT22;1026;51.460;7.252;2023-03-29T06:53:20;6.90;93.30
2042;DHT22;1026;51.460;7.252;2023-03-29T06:55:46;6.80;93.20
2042;DHT22;1026;51.460;7.252;2023-03-29T06:58:15;6.90;93.30
2042;DHT22;1026;51.460;7.252;2023-03-29T07:00:41;6.90;93.20
2042;DHT22;1026;51.460;7.252;2023-03-29T07:03:08;6.80;93.20
2042;DHT22;1026;51.460;7.252;2023-03-29T07:05:38;6.90;93.20
2042;DHT22;1026;51.460;7.252;2023-03-29T07:08:07;6.90;93.20
2042;DHT22;1026;51.460;7.252;2023-03-29T07:10:38;6.90;93.20
2042;DHT22;1026;51.460;7.252;2023-03-29T07:13:06;6.90;93.20
2042;DHT22;1026;51.460;7.252;2023-03-29T07:15:33;6.80;93.20
2042;DHT22;1026;51.460;7.252;2023-03-29T07:18:00;6.90;93.20
2042;DHT22;1026;51.460;7.252;2023-03-29T07:20:28;7.00;93.20
2042;DHT22;1026;51.460;7.252;2023-03-29T07:22:56;7.00;93.20
2042;DHT22;1026;51.460;7.252;2023-03-29T07:25:24;7.00;93.30
2042;DHT22;1026;51.460;7.252;2023-03-29T07:27:55;6.90;93.20
2042;DHT22;1026;51.460;7.252;2023-03-29T07:30:24;7.00;93.20
2042;DHT22;1026;51.460;7.252;2023-03-29T07:32:52;7.00;93.30
2042;DHT22;1026;51.460;7.252;2023-03-29T07:35:18;7.00;93.20
2042;DHT22;1026;51.460;7.252;2023-03-29T07:37:44;7.00;93.20
2042;DHT22;1026;51.460;7.252;2023-03-29T07:40:12;7.00;93.20
2042;DHT22;1026;51.460;7.252;2023-03-29T07:42:58;7.10;93.30
2042;DHT22;1026;51.460;7.252;2023-03-29T07:45:26;7.10;93.20
2042;DHT22;1026;51.460;7.252;2023-03-29T07:47:54;7.00;93.10
2042;DHT22;1026;51.460;7.252;2023-03-29T07:50:20;7.10;93.30
2042;DHT22;1026;51.460;7.252;2023-03-29T07:52:49;7.10;93.10
2042;DHT22;1026;51.460;7.252;2023-03-29T07:55:15;7.10;93.10
2042;DHT22;1026;51.460;7.252;2023-03-29T08:01:10;7.20;93.20
2042;DHT22;1026;51.460;7.252;2023-03-29T08:03:40;7.10;93.10
2042;DHT22;1026;51.460;7.252;2023-03-29T08:06:06;7.20;93.10
2042;DHT22;1026;51.460;7.252;2023-03-29T08:08:32;7.10;93.10
2042;DHT22;1026;51.460;7.252;2023-03-29T08:10:58;7.20;93.10
2042;DHT22;1026;51.460;7.252;2023-03-29T08:13:23;7.20;93.10
2042;DHT22;1026;51.460;7.252;2023-03-29T08:15:49;7.20;93.10
2042;DHT22;1026;51.460;7.252;2023-03-29T08:18:15;7.20;93.10
2042;DHT22;1026;51.460;7.252;2023-03-29T08:20:41;7.20;93.10
2042;DHT22;1026;51.460;7.252;2023-03-29T08:23:07;7.30;93.10
2042;DHT22;1026;51.460;7.252;2023-03-29T08:25:32;7.20;93.00
2042;DHT22;1026;51.460;7.252;2023-03-29T08:27:59;7.30;93.20
2042;DHT22;1026;51.460;7.252;2023-03-29T08:30:25;7.30;93.00
2042;DHT22;1026;51.460;7.252;2023-03-29T08:32:51;7.30;93.00
2042;DHT22;1026;51.460;7.252;2023-03-29T08:35:18;7.30;93.10
2042;DHT22;1026;51.460;7.252;2023-03-29T08:37:44;7.40;93.00
2042;DHT22;1026;51.460;7.252;2023-03-29T08:40:18;7.40;92.90
2042;DHT22;1026;51.460;7.252;2023-03-29T08:43:03;7.40;93.40
2042;DHT22;1026;51.460;7.252;2023-03-29T08:48:21;7.40;93.10
2042;DHT22;1026;51.460;7.252;2023-03-29T08:51:08;7.40;93.20
2042;DHT22;1026;51.460;7.252;2023-03-29T08:53:48;7.40;93.10
2042;DHT22;1026;51.460;7.252;2023-03-29T08:56:20;7.40;93.00
2042;DHT22;1026;51.460;7.252;2023-03-29T08:58:50;7.50;92.90
2042;DHT22;1026;51.460;7.252;2023-03-29T09:01:16;7.40;93.00
2042;DHT22;1026;51.460;7.252;2023-03-29T09:03:47;7.40;93.00
2042;DHT22;1026;51.460;7.252;2023-03-29T09:06:15;7.50;93.00
2042;DHT22;1026;51.460;7.252;2023-03-29T09:08:45;7.40;93.00
2042;DHT22;1026;51.460;7.252;2023-03-29T09:11:35;7.40;93.00
2042;DHT22;1026;51.460;7.252;2023-03-29T09:19:38;7.60;93.00
2042;DHT22;1026;51.460;7.252;2023-03-29T09:25:15;7.70;93.10
2042;DHT22;1026;51.460;7.252;2023-03-29T09:28:09;7.50;93.00
2042;DHT22;1026;51.460;7.252;2023-03-29T09:30:50;7.60;93.10
2042;DHT22;1026;51.460;7.252;2023-03-29T09:33:36;7.50;93.00
2042;DHT22;1026;51.460;7.252;2023-03-29T09:36:17;7.70;93.00
2042;DHT22;1026;51.460;7.252;2023-03-29T09:38:48;7.70;92.90
2042;DHT22;1026;51.460;7.252;2023-03-29T09:41:28;7.70;93.00
2042;DHT22;1026;51.460;7.252;2023-03-29T09:43:57;7.70;93.40
2042;DHT22;1026;51.460;7.252;2023-03-29T09:46:45;7.70;93.10
2042;DHT22;1026;51.460;7.252;2023-03-29T09:49:17;8.00;96.90
2042;DHT22;1026;51.460;7.252;2023-03-29T09:52:15;8.00;95.40
2042;DHT22;1026;51.460;7.252;2023-03-29T09:54:46;8.10;94.30
2042;DHT22;1026;51.460;7.252;2023-03-29T09:57:15;8.00;94.60
2042;DHT22;1026;51.460;7.252;2023-03-29T09:59:42;7.90;94.20
2042;DHT22;1026;51.460;7.252;2023-03-29T10:02:11;8.00;94.50
2042;DHT22;1026;51.460;7.252;2023-03-29T10:04:38;8.00;94.30
2042;DHT22;1026;51.460;7.252;2023-03-29T10:07:05;8.00;94.50
2042;DHT22;1026;51.460;7.252;2023-03-29T10:09:32;8.00;94.20
2042;DHT22;1026;51.460;7.252;2023-03-29T10:12:05;8.00;94.00
2042;DHT22;1026;51.460;7.252;2023-03-29T10:14:34;8.00;94.10
2042;DHT22;1026;51.460;7.252;2023-03-29T10:17:04;8.10;94.10
2042;DHT22;1026;51.460;7.252;2023-03-29T10:19:33;8.10;93.80
2042;DHT22;1026;51.460;7.252;2023-03-29T10:22:02;8.10;93.80
2042;DHT22;1026;51.460;7.252;2023-03-29T10:24:29;8.20;94.00
2042;DHT22;1026;51.460;7.252;2023-03-29T10:27:03;8.20;94.00
2042;DHT22;1026;51.460;7.252;2023-03-29T10:29:46;8.10;94.00
2042;DHT22;1026;51.460;7.252;2023-03-29T10:32:15;8.20;94.20
2042;DHT22;1026;51.460;7.252;2023-03-29T10:34:44;8.20;94.20
2042;DHT22;1026;51.460;7.252;2023-03-29T10:37:40;8.20;94.00
2042;DHT22;1026;51.460;7.252;2023-03-29T10:42:51;8.30;94.00
2042;DHT22;1026;51.460;7.252;2023-03-29T10:45:24;8.40;94.00
2042;DHT22;1026;51.460;7.252;2023-03-29T10:47:54;8.40;94.00
2042;DHT22;1026;51.460;7.252;2023-03-29T10:50:21;8.40;94.00
2042;DHT22;1026;51.460;7.252;2023-03-29T10:52:47;8.40;93.90
2042;DHT22;1026;51.460;7.252;2023-03-29T10:55:32;8.40;93.90
2042;DHT22;1026;51.460;7.252;2023-03-29T10:58:25;8.50;93.80
2042;DHT22;1026;51.460;7.252;2023-03-29T11:00:56;8.40;93.70
2042;DHT22;1026;51.460;7.252;2023-03-29T11:03:26;8.60;93.80
2042;DHT22;1026;51.460;7.252;2023-03-29T11:06:06;8.60;93.70
2042;DHT22;1026;51.460;7.252;2023-03-29T11:09:00;8.60;93.60
2042;DHT22;1026;51.460;7.252;2023-03-29T11:13:58;8.70;93.50
2042;DHT22;1026;51.460;7.252;2023-03-29T11:16:39;8.70;93.40
2042;DHT22;1026;51.460;7.252;2023-03-29T11:19:28;8.80;93.40
2042;DHT22;1026;51.460;7.252;2023-03-29T11:22:16;8.80;93.40
2042;DHT22;1026;51.460;7.252;2023-03-29T11:28:01;8.90;93.30
2042;DHT22;1026;51.460;7.252;2023-03-29T11:30:55;8.90;93.20
2042;DHT22;1026;51.460;7.252;2023-03-29T11:33:36;8.90;93.20
2042;DHT22;1026;51.460;7.252;2023-03-29T11:36:24;9.00;93.10
2042;DHT22;1026;51.460;7.252;2023-03-29T11:41:47;9.10;93.00
2042;DHT22;1026;51.460;7.252;2023-03-29T11:44:19;9.10;93.00
2042;DHT22;1026;51.460;7.252;2023-03-29T11:46:58;9.10;93.00
2042;DHT22;1026;51.460;7.252;2023-03-29T11:49:31;9.20;93.00
2042;DHT22;1026;51.460;7.252;2023-03-29T11:54:48;9.20;92.90
2042;DHT22;1026;51.460;7.252;2023-03-29T12:00:35;9.40;92.90
2042;DHT22;1026;51.460;7.252;2023-03-29T12:03:10;9.40;92.80
2042;DHT22;1026;51.460;7.252;2023-03-29T12:05:45;9.40;92.80
2042;DHT22;1026;51.460;7.252;2023-03-29T12:08:24;9.50;92.70
2042;DHT22;1026;51.460;7.252;2023-03-29T12:11:03;9.50;92.60
2042;DHT22;1026;51.460;7.252;2023-03-29T12:13:36;9.50;92.50
2042;DHT22;1026;51.460;7.252;2023-03-29T12:16:09;9.60;92.60
2042;DHT22;1026;51.460;7.252;2023-03-29T12:18:41;9.60;92.50
2042;DHT22;1026;51.460;7.252;2023-03-29T12:21:25;9.50;92.50
2042;DHT22;1026;51.460;7.252;2023-03-29T12:23:53;9.60;92.50
2042;DHT22;1026;51.460;7.252;2023-03-29T12:29:35;9.80;92.50
2042;DHT22;1026;51.460;7.252;2023-03-29T12:35:04;9.80;92.40
2042;DHT22;1026;51.460;7.252;2023-03-29T12:42:44;9.80;92.30
2042;DHT22;1026;51.460;7.252;2023-03-29T12:45:19;10.00;91.90
2042;DHT22;1026;51.460;7.252;2023-03-29T12:48:04;10.00;91.90
2042;DHT22;1026;51.460;7.252;2023-03-29T12:50:39;10.00;91.90
2042;DHT22;1026;51.460;7.252;2023-03-29T12:53:30;10.10;91.90
2042;DHT22;1026;51.460;7.252;2023-03-29T12:56:19;10.10;91.90
2042;DHT22;1026;51.460;7.252;2023-03-29T13:01:31;10.10;91.70
2042;DHT22;1026;51.460;7.252;2023-03-29T13:06:28;10.20;91.70
2042;DHT22;1026;51.460;7.252;2023-03-29T13:09:00;10.10;91.70
2042;DHT22;1026;51.460;7.252;2023-03-29T13:11:33;10.20;91.90
2042;DHT22;1026;51.460;7.252;2023-03-29T13:14:12;10.20;91.70
2042;DHT22;1026;51.460;7.252;2023-03-29T13:16:39;10.10;91.80
2042;DHT22;1026;51.460;7.252;2023-03-29T13:21:58;10.30;91.80
2042;DHT22;1026;51.460;7.252;2023-03-29T13:24:44;10.30;91.60
2042;DHT22;1026;51.460;7.252;2023-03-29T13:27:40;10.40;91.90
2042;DHT22;1026;51.460;7.252;2023-03-29T13:30:48;10.30;91.70
2042;DHT22;1026;51.460;7.252;2023-03-29T13:36:12;10.50;91.60
2042;DHT22;1026;51.460;7.252;2023-03-29T13:38:45;10.50;91.50
2042;DHT22;1026;51.460;7.252;2023-03-29T13:41:48;10.50;91.60
2042;DHT22;1026;51.460;7.252;2023-03-29T13:44:27;10.60;91.50
2042;DHT22;1026;51.460;7.252;2023-03-29T13:47:11;10.60;91.50
2042;DHT22;1026;51.460;7.252;2023-03-29T13:49:40;10.60;91.60
2042;DHT22;1026;51.460;7.252;2023-03-29T13:52:15;10.60;91.60
2042;DHT22;1026;51.460;7.252;2023-03-29T13:54:53;10.60;91.70
2042;DHT22;1026;51.460;7.252;2023-03-29T13:57:29;10.70;91.50
2042;DHT22;1026;51.460;7.252;2023-03-29T14:00:02;10.70;91.50
2042;DHT22;1026;51.460;7.252;2023-03-29T14:02:35;10.70;91.50
2042;DHT22;1026;51.460;7.252;2023-03-29T14:05:04;10.70;91.40
2042;DHT22;1026;51.460;7.252;2023-03-29T14:07:32;10.80;91.70
2042;DHT22;1026;51.460;7.252;2023-03-29T14:10:00;10.80;91.40
2042;DHT22;1026;51.460;7.252;2023-03-29T14:12:32;10.80;91.60
2042;DHT22;1026;51.460;7.252;2023-03-29T14:15:04;10.90;91.40
2042;DHT22;1026;51.460;7.252;2023-03-29T14:17:30;10.80;92.30
2042;DHT22;1026;51.460;7.252;2023-03-29T14:19:58;10.90;91.50
2042;DHT22;1026;51.460;7.252;2023-03-29T14:22:30;11.00;91.60
2042;DHT22;1026;51.460;7.252;2023-03-29T14:25:01;11.00;91.40
2042;DHT22;1026;51.460;7.252;2023-03-29T14:27:30;11.00;91.40
2042;DHT22;1026;51.460;7.252;2023-03-29T14:29:57;11.00;91.40
2042;DHT22;1026;51.460;7.252;2023-03-29T14:32:29;11.10;91.40
2042;DHT22;1026;51.460;7.252;2023-03-29T14:34:55;11.10;91.50
2042;DHT22;1026;51.460;7.252;2023-03-29T14:37:25;11.10;91.40
2042;DHT22;1026;51.460;7.252;2023-03-29T14:39:51;11.10;91.40
2042;DHT22;1026;51.460;7.252;2023-03-29T14:42:20;11.10;91.40
2042;DHT22;1026;51.460;7.252;2023-03-29T14:44:49;11.20;91.40
2042;DHT22;1026;51.460;7.252;2023-03-29T14:47:31;11.20;91.30
2042;DHT22;1026;51.460;7.252;2023-03-29T14:49:58;11.20;91.50
2042;DHT22;1026;51.460;7.252;2023-03-29T14:52:27;11.20;91.50
2042;DHT22;1026;51.460;7.252;2023-03-29T14:54:55;11.20;91.50
2042;DHT22;1026;51.460;7.252;2023-03-29T14:57:25;11.20;91.70
2042;DHT22;1026;51.460;7.252;2023-03-29T14:59:58;11.30;91.70
2042;DHT22;1026;51.460;7.252;2023-03-29T15:02:28;11.30;91.50
2042;DHT22;1026;51.460;7.252;2023-03-29T15:04:56;11.30;91.60
2042;DHT22;1026;51.460;7.252;2023-03-29T15:07:23;11.30;91.90
2042;DHT22;1026;51.460;7.252;2023-03-29T15:09:49;11.30;91.40
2042;DHT22;1026;51.460;7.252;2023-03-29T15:12:16;11.30;91.80
2042;DHT22;1026;51.460;7.252;2023-03-29T15:14:46;11.30;91.50
2042;DHT22;1026;51.460;7.252;2023-03-29T15:19:59;11.40;91.70
2042;DHT22;1026;51.460;7.252;2023-03-29T15:22:33;11.40;91.80
2042;DHT22;1026;51.460;7.252;2023-03-29T15:24:59;11.30;91.70
2042;DHT22;1026;51.460;7.252;2023-03-29T15:27:26;11.40;91.80
2042;DHT22;1026;51.460;7.252;2023-03-29T15:29:59;11.50;91.80
2042;DHT22;1026;51.460;7.252;2023-03-29T15:32:34;11.50;91.90
2042;DHT22;1026;51.460;7.252;2023-03-29T15:35:05;11.50;91.90
2042;DHT22;1026;51.460;7.252;2023-03-29T15:37:32;11.50;91.70
2042;DHT22;1026;51.460;7.252;2023-03-29T15:39:58;11.40;91.70
2042;DHT22;1026;51.460;7.252;2023-03-29T15:42:24;11.40;91.70
2042;DHT22;1026;51.460;7.252;2023-03-29T15:44:53;11.60;92.10
2042;DHT22;1026;51.460;7.252;2023-03-29T15:47:20;11.60;92.00
2042;DHT22;1026;51.460;7.252;2023-03-29T15:49:46;11.60;92.30
2042;DHT22;1026;51.460;7.252;2023-03-29T15:52:12;11.50;91.80
2042;DHT22;1026;51.460;7.252;2023-03-29T15:54:38;11.60;91.80
2042;DHT22;1026;51.460;7.252;2023-03-29T15:57:10;11.60;92.00
2042;DHT22;1026;51.460;7.252;2023-03-29T15:59:56;11.60;92.10
2042;DHT22;1026;51.460;7.252;2023-03-29T16:02:23;11.60;92.30
2042;DHT22;1026;51.460;7.252;2023-03-29T16:04:49;11.70;92.40
2042;DHT22;1026;51.460;7.252;2023-03-29T16:07:18;11.70;92.50
2042;DHT22;1026;51.460;7.252;2023-03-29T16:09:45;11.70;92.60
2042;DHT22;1026;51.460;7.252;2023-03-29T16:12:11;11.70;92.70
2042;DHT22;1026;51.460;7.252;2023-03-29T16:14:37;11.80;92.80
2042;DHT22;1026;51.460;7.252;2023-03-29T16:17:04;11.60;92.70
2042;DHT22;1026;51.460;7.252;2023-03-29T16:19:31;11.70;92.80
2042;DHT22;1026;51.460;7.252;2023-03-29T16:21:59;11.70;92.80
2042;DHT22;1026;51.460;7.252;2023-03-29T16:24:28;11.70;92.60
2042;DHT22;1026;51.460;7.252;2023-03-29T16:26:55;11.80;92.80
2042;DHT22;1026;51.460;7.252;2023-03-29T16:29:21;11.70;92.60
2042;DHT22;1026;51.460;7.252;2023-03-29T16:31:48;11.80;92.70
2042;DHT22;1026;51.460;7.252;2023-03-29T16:34:15;11.80;92.60
2042;DHT22;1026;51.460;7.252;2023-03-29T16:36:43;11.80;92.70
2042;DHT22;1026;51.460;7.252;2023-03-29T16:39:10;11.70;92.60
2042;DHT22;1026;51.460;7.252;2023-03-29T16:41:38;11.80;92.50
2042;DHT22;1026;51.460;7.252;2023-03-29T16:44:04;11.80;92.50
2042;DHT22;1026;51.460;7.252;2023-03-29T16:46:32;11.80;92.40
2042;DHT22;1026;51.460;7.252;2023-03-29T16:48:58;11.90;92.60
2042;DHT22;1026;51.460;7.252;2023-03-29T16:51:26;11.80;92.50
2042;DHT22;1026;51.460;7.252;2023-03-29T16:53:56;11.90;92.60
2042;DHT22;1026;51.460;7.252;2023-03-29T16:56:25;11.80;92.40
2042;DHT22;1026;51.460;7.252;2023-03-29T16:58:52;11.90;92.40
2042;DHT22;1026;51.460;7.252;2023-03-29T17:01:18;11.90;92.70
2042;DHT22;1026;51.460;7.252;2023-03-29T17:03:45;11.90;92.70
2042;DHT22;1026;51.460;7.252;2023-03-29T17:06:11;11.90;92.50
2042;DHT22;1026;51.460;7.252;2023-03-29T17:08:37;11.80;92.70
2042;DHT22;1026;51.460;7.252;2023-03-29T17:11:04;11.90;92.40
2042;DHT22;1026;51.460;7.252;2023-03-29T17:13:31;11.90;92.20
2042;DHT22;1026;51.460;7.252;2023-03-29T17:15:57;11.90;92.60
2042;DHT22;1026;51.460;7.252;2023-03-29T17:18:24;11.90;92.40
2042;DHT22;1026;51.460;7.252;2023-03-29T17:20:51;12.00;92.60
2042;DHT22;1026;51.460;7.252;2023-03-29T17:23:19;11.90;92.40
2042;DHT22;1026;51.460;7.252;2023-03-29T17:25:45;12.00;92.60
2042;DHT22;1026;51.460;7.252;2023-03-29T17:28:11;12.00;92.40
2042;DHT22;1026;51.460;7.252;2023-03-29T17:30:37;12.00;92.70
2042;DHT22;1026;51.460;7.252;2023-03-29T17:33:04;12.00;92.40
2042;DHT22;1026;51.460;7.252;2023-03-29T17:35:30;11.90;92.70
2042;DHT22;1026;51.460;7.252;2023-03-29T17:38:02;12.00;92.70
2042;DHT22;1026;51.460;7.252;2023-03-29T17:40:29;12.00;92.50
2042;DHT22;1026;51.460;7.252;2023-03-29T17:42:54;12.00;92.70